createdAt,value
2018-12-07T00:00:22.991Z,99525.88
2018-12-07T00:02:51.112Z,99532.50
2018-12-07T00:05:19.168Z,99527.08
2018-12-07T00:07:47.297Z,99527.08
2018-12-07T00:10:15.426Z,99523.70
2018-12-07T00:12:43.536Z,99519.21
2018-12-07T00:15:11.707Z,99512.23
2018-12-07T00:17:39.920Z,99513.37
2018-12-07T00:20:08.875Z,99513.38
2018-12-07T00:22:36.983Z,99508.59
2018-12-07T00:25:06.483Z,99508.72
2018-12-07T00:27:34.622Z,99504.09
2018-12-07T00:30:03.556Z,99502.94
2018-12-07T00:32:31.726Z,99508.00
2018-12-07T00:34:59.836Z,99508.45
2018-12-07T00:37:27.966Z,99495.56
2018-12-07T00:39:56.157Z,99488.11
2018-12-07T00:42:24.322Z,99489.55
2018-12-07T00:44:52.530Z,99488.03
2018-12-07T00:47:20.632Z,99486.53
2018-12-07T00:49:48.862Z,99479.70
2018-12-07T00:52:16.990Z,99478.34
2018-12-07T00:54:45.293Z,99473.49
2018-12-07T00:57:13.392Z,99454.58
2018-12-07T00:59:41.583Z,99469.75
2018-12-07T01:02:09.739Z,99469.38
2018-12-07T01:04:37.888Z,99452.36
2018-12-07T01:07:06.117Z,99449.55
2018-12-07T01:09:34.344Z,99443.56
2018-12-07T01:12:02.527Z,99442.93
2018-12-07T01:14:30.754Z,99438.66
2018-12-07T01:17:00.711Z,99442.29
2018-12-07T01:19:28.903Z,99441.44
2018-12-07T01:21:57.012Z,99448.50
2018-12-07T01:24:25.181Z,99449.50
2018-12-07T01:26:53.382Z,99447.17
2018-12-07T01:29:21.973Z,99447.62
2018-12-07T01:31:50.110Z,99435.82
2018-12-07T01:34:18.271Z,99438.41
2018-12-07T01:36:46.379Z,99435.39
2018-12-07T01:39:14.639Z,99434.72
2018-12-07T01:41:42.781Z,99438.80
2018-12-07T01:44:10.974Z,99433.51
2018-12-07T01:46:39.059Z,99432.11
2018-12-07T01:49:07.216Z,99426.30
2018-12-07T01:51:35.308Z,99426.64
2018-12-07T01:54:03.444Z,99432.38
2018-12-07T01:56:31.632Z,99420.48
2018-12-07T01:59:09.340Z,99420.14
2018-12-07T02:01:37.392Z,99423.23
2018-12-07T02:04:05.564Z,99423.89
2018-12-07T02:06:34.816Z,99414.98
2018-12-07T02:09:04.828Z,99413.80
2018-12-07T02:11:32.936Z,99410.98
2018-12-07T02:14:01.148Z,99402.38
2018-12-07T02:16:29.347Z,99401.23
2018-12-07T02:19:07.156Z,99396.95
2018-12-07T02:21:35.278Z,99390.50
2018-12-07T02:24:04.040Z,99382.39
2018-12-07T02:26:32.176Z,99377.58
2018-12-07T02:29:00.339Z,99379.69
2018-12-07T02:31:29.017Z,99380.02
2018-12-07T02:33:57.120Z,99380.28
2018-12-07T02:36:25.885Z,99375.48
2018-12-07T02:38:54.198Z,99376.81
2018-12-07T02:41:22.334Z,99371.22
2018-12-07T02:43:50.482Z,99363.45
2018-12-07T02:46:18.648Z,99363.44
2018-12-07T02:48:47.061Z,99361.76
2018-12-07T02:51:15.157Z,99359.90
2018-12-07T02:53:43.331Z,99359.36
2018-12-07T02:56:11.509Z,99355.88
2018-12-07T02:58:39.668Z,99347.42
2018-12-07T03:01:07.850Z,99342.58
2018-12-07T03:03:35.977Z,99339.76
2018-12-07T03:06:04.060Z,99354.44
2018-12-07T03:08:37.184Z,99336.58
2018-12-07T03:11:05.362Z,99330.42
2018-12-07T03:13:33.835Z,99330.58
2018-12-07T03:16:02.012Z,99329.44
2018-12-07T03:18:32.051Z,99326.25
2018-12-07T03:21:00.393Z,99326.55
2018-12-07T03:23:28.563Z,99330.66
2018-12-07T03:25:56.653Z,99327.88
2018-12-07T03:28:25.121Z,99328.66
2018-12-07T03:30:53.284Z,99327.99
2018-12-07T03:33:21.429Z,99330.00
2018-12-07T03:35:49.640Z,99325.54
2018-12-07T03:38:17.836Z,99328.88
2018-12-07T03:40:46.049Z,99329.53
2018-12-07T03:43:14.336Z,99321.62
2018-12-07T03:45:42.499Z,99318.20
2018-12-07T03:48:10.873Z,99315.72
2018-12-07T03:50:38.994Z,99320.39
2018-12-07T03:53:07.153Z,99318.57
2018-12-07T03:55:35.905Z,99313.78
2018-12-07T03:58:04.162Z,99310.05
2018-12-07T04:00:32.380Z,99309.39
2018-12-07T04:03:00.559Z,99301.50
2018-12-07T04:05:28.654Z,99310.42
2018-12-07T04:07:56.840Z,99310.45
2018-12-07T04:10:24.966Z,99306.64
2018-12-07T04:12:53.130Z,99299.75
2018-12-07T04:15:21.258Z,99294.33
2018-12-07T04:17:49.401Z,99289.55
2018-12-07T04:20:17.598Z,99295.16
2018-12-07T04:22:45.631Z,99287.87
2018-12-07T04:25:13.771Z,99283.41
2018-12-07T04:27:41.931Z,99283.91
2018-12-07T04:30:25.174Z,99280.22
2018-12-07T04:32:53.404Z,99276.91
2018-12-07T04:35:21.632Z,99275.90
2018-12-07T04:37:49.864Z,99277.34
2018-12-07T04:40:23.288Z,99279.02
2018-12-07T04:42:51.921Z,99269.27
2018-12-07T04:45:20.057Z,99268.42
2018-12-07T04:47:48.428Z,99261.67
2018-12-07T04:50:16.671Z,99259.66
2018-12-07T04:52:44.894Z,99259.47
2018-12-07T04:55:13.126Z,99252.23
2018-12-07T04:57:41.489Z,99253.53
2018-12-07T05:00:14.737Z,99254.50
2018-12-07T05:02:43.854Z,99249.50
2018-12-07T05:05:13.165Z,99246.19
2018-12-07T05:07:41.327Z,99240.93
2018-12-07T05:10:20.536Z,99239.99
2018-12-07T05:12:48.683Z,99240.95
2018-12-07T05:15:16.863Z,99245.11
2018-12-07T05:17:45.204Z,99243.55
2018-12-07T05:20:13.359Z,99243.05
2018-12-07T05:22:41.480Z,99233.61
2018-12-07T05:25:09.618Z,99235.88
2018-12-07T05:27:37.868Z,99227.09
2018-12-07T05:30:07.389Z,99225.39
2018-12-07T05:32:35.542Z,99221.75
2018-12-07T05:35:04.169Z,99226.20
2018-12-07T05:37:32.311Z,99224.52
2018-12-07T05:40:00.453Z,99224.34
2018-12-07T05:42:28.606Z,99224.34
2018-12-07T05:44:56.741Z,99220.58
2018-12-07T05:47:24.872Z,99216.77
2018-12-07T05:49:53.166Z,99218.13
2018-12-07T05:52:21.520Z,99221.89
2018-12-07T05:54:49.610Z,99212.98
2018-12-07T05:57:17.833Z,99207.83
2018-12-07T05:59:48.211Z,99202.38
2018-12-07T06:02:19.728Z,99207.20
2018-12-07T06:04:47.923Z,99199.42
2018-12-07T06:07:16.118Z,99195.30
2018-12-07T06:09:44.321Z,99186.05
2018-12-07T06:12:12.482Z,99197.45
2018-12-07T06:14:40.676Z,99194.66
2018-12-07T06:17:08.845Z,99198.80
2018-12-07T06:19:37.010Z,99193.29
2018-12-07T06:22:07.929Z,99198.36
2018-12-07T06:24:37.534Z,99202.11
2018-12-07T06:27:08.350Z,99204.39
2018-12-07T06:29:38.838Z,99207.98
2018-12-07T06:32:09.757Z,99202.03
2018-12-07T06:34:37.880Z,99194.59
2018-12-07T06:37:06.012Z,99195.26
2018-12-07T06:39:34.093Z,99191.67
2018-12-07T06:42:02.240Z,99189.74
2018-12-07T06:44:30.361Z,99189.74
2018-12-07T06:46:58.458Z,99185.50
2018-12-07T06:49:26.588Z,99183.70
2018-12-07T06:51:54.723Z,99180.42
2018-12-07T06:54:22.813Z,99173.80
2018-12-07T06:56:50.993Z,99176.88
2018-12-07T06:59:19.404Z,99179.74
2018-12-07T07:01:47.584Z,99178.64
2018-12-07T07:04:15.723Z,99177.53
2018-12-07T07:06:43.813Z,99179.09
2018-12-07T07:09:16.923Z,99179.98
2018-12-07T07:11:45.010Z,99177.69
2018-12-07T07:14:13.139Z,99169.14
2018-12-07T07:16:41.615Z,99172.36
2018-12-07T07:19:09.708Z,99176.19
2018-12-07T07:21:37.828Z,99169.77
2018-12-07T07:24:05.954Z,99165.03
2018-12-07T07:26:34.004Z,99167.02
2018-12-07T07:29:02.609Z,99164.38
2018-12-07T07:31:30.782Z,99164.37
2018-12-07T07:33:58.951Z,99165.80
2018-12-07T07:36:27.116Z,99164.29
2018-12-07T07:38:55.268Z,99160.69
2018-12-07T07:41:23.486Z,99155.02
2018-12-07T07:43:52.320Z,99149.56
2018-12-07T07:46:20.487Z,99152.87
2018-12-07T07:48:48.847Z,99142.63
2018-12-07T07:51:17.005Z,99148.41
2018-12-07T07:53:45.072Z,99139.63
2018-12-07T07:56:15.540Z,99142.05
2018-12-07T07:58:43.596Z,99144.62
2018-12-07T08:01:11.731Z,99140.16
2018-12-07T08:03:39.896Z,99145.94
2018-12-07T08:06:08.074Z,99148.70
2018-12-07T08:08:37.755Z,99143.60
2018-12-07T08:11:07.081Z,99141.70
2018-12-07T08:13:35.253Z,99130.84
2018-12-07T08:16:03.448Z,99129.94
2018-12-07T08:18:31.654Z,99132.74
2018-12-07T08:20:59.887Z,99124.54
2018-12-07T08:23:28.034Z,99125.48
2018-12-07T08:25:59.228Z,99124.47
2018-12-07T08:28:27.531Z,99116.15
2018-12-07T08:30:55.665Z,99112.62
2018-12-07T08:33:24.021Z,99105.30
2018-12-07T08:35:52.119Z,99106.63
2018-12-07T08:38:20.402Z,99096.85
2018-12-07T08:40:48.511Z,99096.16
2018-12-07T08:43:16.676Z,99095.64
2018-12-07T08:45:44.892Z,99096.19
2018-12-07T08:48:13.351Z,99094.34
2018-12-07T08:50:41.652Z,99087.85
2018-12-07T08:53:09.837Z,99090.73
2018-12-07T08:55:38.062Z,99094.73
2018-12-07T08:58:06.489Z,99086.30
2018-12-07T09:00:34.711Z,99083.69
2018-12-07T09:03:02.838Z,99077.44
2018-12-07T09:05:31.062Z,99077.91
2018-12-07T09:07:59.358Z,99079.34
2018-12-07T09:10:27.524Z,99081.21
2018-12-07T09:12:55.732Z,99080.00
2018-12-07T09:15:24.044Z,99078.48
2018-12-07T09:17:52.723Z,99075.67
2018-12-07T09:20:21.017Z,99072.70
2018-12-07T09:22:49.217Z,99062.36
2018-12-07T09:25:17.356Z,99058.53
2018-12-07T09:27:45.499Z,99056.44
2018-12-07T09:30:13.643Z,99012.86
2018-12-07T09:32:41.711Z,99047.10
2018-12-07T09:35:09.793Z,99048.99
2018-12-07T09:37:37.963Z,99041.36
2018-12-07T09:40:06.266Z,99042.61
2018-12-07T09:42:35.887Z,99043.70
2018-12-07T09:45:05.436Z,99033.42
2018-12-07T09:47:33.562Z,99028.00
2018-12-07T09:50:01.902Z,99024.20
2018-12-07T09:52:30.029Z,99018.05
2018-12-07T09:54:58.148Z,99014.55
2018-12-07T09:57:26.227Z,99010.13
2018-12-07T09:59:54.355Z,99004.98
2018-12-07T10:02:23.769Z,99000.84
2018-12-07T10:04:52.934Z,98999.48
2018-12-07T10:07:21.057Z,98989.86
2018-12-07T10:09:49.923Z,98987.58
2018-12-07T10:12:18.025Z,98986.87
2018-12-07T10:14:46.141Z,98978.71
2018-12-07T10:17:14.215Z,98973.95
2018-12-07T10:19:42.334Z,98972.75
2018-12-07T10:22:10.467Z,98968.69
2018-12-07T10:24:38.630Z,98964.95
2018-12-07T10:27:07.456Z,98954.20
2018-12-07T10:29:40.607Z,98955.20
2018-12-07T10:32:08.657Z,98954.48
2018-12-07T10:34:36.716Z,98950.78
2018-12-07T10:37:04.864Z,98933.80
2018-12-07T10:39:33.034Z,98929.17
2018-12-07T10:42:01.545Z,98930.86
2018-12-07T10:44:29.678Z,98929.53
2018-12-07T10:46:57.844Z,98920.77
2018-12-07T10:49:35.581Z,98922.48
2018-12-07T10:52:03.834Z,98915.08
2018-12-07T10:54:31.970Z,98905.18
2018-12-07T10:57:00.674Z,98899.76
2018-12-07T10:59:28.848Z,98901.28
2018-12-07T11:02:02.756Z,98893.64
2018-12-07T11:04:36.594Z,98888.75
2018-12-07T11:07:10.686Z,98877.00
2018-12-07T11:09:45.390Z,98870.16
2018-12-07T11:12:19.091Z,98866.92
2018-12-07T11:14:53.138Z,98868.95
2018-12-07T11:19:29.520Z,98861.04
2018-12-07T11:22:03.314Z,98854.29
2018-12-07T11:26:38.448Z,98856.71
2018-12-07T11:29:16.065Z,98846.92
2018-12-07T11:31:49.957Z,98839.37
2018-12-07T11:34:22.210Z,98831.18
2018-12-07T11:36:50.330Z,98819.09
2018-12-07T11:39:18.767Z,98811.80
2018-12-07T11:41:46.964Z,98807.48
2018-12-07T11:44:15.169Z,98804.08
2018-12-07T11:46:43.321Z,98803.72
2018-12-07T11:49:12.105Z,98758.05
2018-12-07T11:51:40.254Z,98790.95
2018-12-07T11:54:08.402Z,98784.13
2018-12-07T11:56:36.507Z,98778.25
2018-12-07T11:59:04.637Z,98777.78
2018-12-07T12:01:32.759Z,98770.39
2018-12-07T12:04:00.875Z,98761.41
2018-12-07T12:06:29.097Z,98755.11
2018-12-07T12:08:58.459Z,98744.95
2018-12-07T12:11:26.586Z,98752.86
2018-12-07T12:13:54.795Z,98737.77
2018-12-07T12:16:22.879Z,98735.66
2018-12-07T12:18:51.153Z,98728.20
2018-12-07T12:21:20.882Z,98726.54
2018-12-07T12:23:53.673Z,98721.61
2018-12-07T12:26:19.342Z,98710.52
2018-12-07T12:28:47.465Z,98716.19
2018-12-07T12:31:15.530Z,98705.14
2018-12-07T12:33:43.955Z,98703.23
2018-12-07T13:08:57.068Z,98625.77
2018-12-07T13:11:25.889Z,98613.30
2018-12-07T13:13:54.138Z,98624.73
2018-12-07T13:16:24.352Z,98619.11
2018-12-07T13:18:52.538Z,98610.41
2018-12-07T13:21:20.717Z,98603.79
2018-12-07T13:23:48.827Z,98596.10
2018-12-07T13:26:16.924Z,98595.77
2018-12-07T13:28:45.059Z,98587.09
2018-12-07T13:31:13.358Z,98591.83
2018-12-07T13:33:41.525Z,98590.24
2018-12-07T13:36:09.681Z,98591.56
2018-12-07T13:38:37.848Z,98584.44
2018-12-07T13:41:06.182Z,98572.52
2018-12-07T13:43:34.453Z,98570.71
2018-12-07T13:46:03.170Z,98567.96
2018-12-07T13:48:31.634Z,98565.08
2018-12-07T13:51:00.093Z,98561.89
2018-12-07T13:53:28.406Z,98554.58
2018-12-07T13:55:56.661Z,98552.09
2018-12-07T13:58:24.842Z,98546.31
2018-12-07T14:00:53.131Z,98541.30
2018-12-07T14:03:21.367Z,98538.69
2018-12-07T14:05:49.718Z,98534.34
2018-12-07T14:08:18.839Z,98524.27
2018-12-07T14:10:47.422Z,98525.64
2018-12-07T14:13:15.927Z,98525.14
2018-12-07T14:15:44.240Z,98517.11
2018-12-07T14:18:12.549Z,98503.09
2018-12-07T14:20:41.783Z,98498.36
2018-12-07T14:23:10.936Z,98500.31
2018-12-07T14:25:40.763Z,98492.17
2018-12-07T14:28:10.591Z,98498.93
2018-12-07T14:30:44.536Z,98489.16
2018-12-07T14:33:15.375Z,98486.72
2018-12-07T14:35:44.629Z,98483.33
2018-12-07T14:38:13.268Z,98476.34
2018-12-07T14:40:43.084Z,98473.41
2018-12-07T14:43:13.298Z,98467.17
2018-12-07T14:45:44.564Z,98465.50
2018-12-07T14:48:14.174Z,98458.97
2018-12-07T14:50:54.267Z,98455.58
2018-12-07T14:53:25.872Z,98453.47
2018-12-07T14:55:57.727Z,98454.09
2018-12-07T14:58:26.350Z,98441.97
2018-12-07T15:00:56.416Z,98447.61
2018-12-07T15:03:24.587Z,98447.94
2018-12-07T15:05:52.748Z,98448.59
2018-12-07T15:08:21.014Z,98444.71
2018-12-07T15:10:49.399Z,98440.59
2018-12-07T15:13:18.003Z,98434.85
2018-12-07T15:15:47.687Z,98426.94
2018-12-07T15:18:28.822Z,98431.36
2018-12-07T15:21:05.220Z,98421.17
2018-12-07T15:23:38.879Z,98414.73
2018-12-07T15:26:20.212Z,98419.48
2018-12-07T15:34:47.826Z,98396.09
2018-12-07T15:37:26.514Z,98392.00
2018-12-07T15:39:57.594Z,98388.97
2018-12-07T15:42:39.842Z,98384.94
2018-12-07T15:45:11.457Z,98388.48
2018-12-07T15:47:44.502Z,98382.39
2018-12-07T15:50:13.484Z,98386.19
2018-12-07T15:52:41.915Z,98393.36
2018-12-07T15:55:10.219Z,98383.36
2018-12-07T15:57:38.706Z,98379.98
2018-12-07T16:00:29.673Z,98369.69
2018-12-07T16:02:58.092Z,98362.10
2018-12-07T16:05:37.054Z,98358.55
2018-12-07T16:08:08.500Z,98351.72
2018-12-07T16:10:36.752Z,98340.25
2018-12-07T16:13:05.189Z,98338.73
2018-12-07T16:15:33.728Z,98315.93
2018-12-07T16:18:02.206Z,98300.02
2018-12-07T16:20:31.261Z,98313.83
2018-12-07T16:23:00.143Z,98306.83
2018-12-07T16:25:28.466Z,98306.55
2018-12-07T16:27:56.910Z,98296.36
2018-12-07T16:30:25.308Z,98292.62
2018-12-07T16:32:53.869Z,98294.55
2018-12-07T16:35:22.406Z,98282.72
2018-12-07T16:37:50.952Z,98290.17
2018-12-07T16:43:22.281Z,98293.31
2018-12-07T16:46:03.628Z,98286.38
2018-12-07T16:48:32.090Z,98278.84
2018-12-07T16:51:03.678Z,98269.93
2018-12-07T16:53:32.024Z,98272.36
2018-12-07T16:56:02.323Z,98266.00
2018-12-07T16:58:30.824Z,98263.54
2018-12-07T17:00:59.080Z,98270.17
2018-12-07T17:03:27.951Z,98266.05
2018-12-07T17:06:12.465Z,98247.41
2018-12-07T17:08:40.822Z,98245.75
2018-12-07T17:11:15.111Z,98253.22
2018-12-07T17:16:49.663Z,98242.91
2018-12-07T17:19:18.190Z,98234.00
2018-12-07T17:21:46.741Z,98235.28
2018-12-07T17:24:15.024Z,98230.21
2018-12-07T17:32:53.148Z,98202.83
2018-12-07T17:35:21.415Z,98182.75
2018-12-07T17:37:49.963Z,98190.67
2018-12-07T17:40:18.318Z,98187.16
2018-12-07T17:42:46.597Z,98179.04
2018-12-07T17:45:14.812Z,98184.45
2018-12-07T17:47:43.291Z,98189.47
2018-12-07T17:50:13.144Z,98184.15
2018-12-07T17:52:42.019Z,98185.06
2018-12-07T17:55:10.655Z,98171.39
2018-12-07T17:57:39.117Z,98170.09
2018-12-07T18:00:10.802Z,98157.83
2018-12-07T18:02:39.109Z,98141.83
2018-12-07T18:08:10.129Z,98139.39
2018-12-07T18:10:38.630Z,98131.69
2018-12-07T18:13:07.262Z,98125.06
2018-12-07T18:15:35.562Z,98123.63
2018-12-07T18:18:04.088Z,98120.16
2018-12-07T18:20:32.334Z,98120.33
2018-12-07T18:23:00.947Z,98113.83
2018-12-07T18:25:29.403Z,98116.72
2018-12-07T18:27:57.733Z,98114.95
2018-12-07T18:30:26.043Z,98116.28
2018-12-07T18:32:54.211Z,98108.83
2018-12-07T18:35:22.510Z,98104.14
2018-12-07T18:37:50.827Z,98095.84
2018-12-07T18:40:19.229Z,98091.38
2018-12-07T18:42:47.765Z,98098.94
2018-12-07T18:45:16.315Z,98097.25
2018-12-07T18:47:45.963Z,98089.71
2018-12-07T18:50:14.431Z,98088.59
2018-12-07T18:52:42.808Z,98093.08
2018-12-07T18:55:11.179Z,98086.08
2018-12-07T18:57:39.477Z,98081.28
2018-12-07T19:00:11.251Z,98076.06
2018-12-07T19:02:45.459Z,98083.41
2018-12-07T19:05:14.284Z,98073.84
2018-12-07T19:07:42.610Z,98076.73
2018-12-07T19:10:10.860Z,98072.13
2018-12-07T19:12:42.173Z,98078.39
2018-12-07T19:15:10.988Z,98074.89
2018-12-07T19:17:39.253Z,98075.89
2018-12-07T19:20:08.224Z,98075.08
2018-12-07T19:22:36.929Z,98065.05
2018-12-07T19:25:06.386Z,98032.92
2018-12-07T19:27:34.819Z,98056.38
2018-12-07T19:30:04.087Z,98061.97
2018-12-07T19:32:32.741Z,98053.62
2018-12-07T19:35:01.010Z,98053.78
2018-12-07T19:37:29.345Z,98056.38
2018-12-07T19:39:57.625Z,98051.69
2018-12-07T19:42:26.144Z,98046.36
2018-12-07T19:44:54.670Z,98042.75
2018-12-07T19:47:23.208Z,98038.25
2018-12-07T19:49:52.673Z,98033.88
2018-12-07T19:52:21.231Z,98032.60
2018-12-07T19:54:49.639Z,98023.40
2018-12-07T19:57:20.090Z,98033.48
2018-12-07T19:59:48.102Z,98025.17
2018-12-07T20:02:17.058Z,98019.78
2018-12-07T20:04:46.076Z,98034.14
2018-12-07T20:07:14.574Z,98027.27
2018-12-07T20:09:43.248Z,98034.34
2018-12-07T20:12:12.138Z,98029.57
2018-12-07T20:14:41.580Z,98028.42
2018-12-07T20:17:10.155Z,98013.28
2018-12-07T20:19:39.389Z,98021.13
2018-12-07T20:22:07.594Z,98033.61
2018-12-07T20:24:35.731Z,98034.86
2018-12-07T20:27:04.256Z,98046.98
2018-12-07T20:29:32.466Z,98043.02
2018-12-07T20:32:00.747Z,98037.36
2018-12-07T20:34:28.869Z,98030.27
2018-12-07T20:36:57.258Z,98037.92
2018-12-07T20:39:25.470Z,98042.06
2018-12-07T20:41:53.629Z,98050.91
2018-12-07T20:44:31.756Z,98042.03
2018-12-07T20:47:00.208Z,98053.80
2018-12-07T20:49:28.461Z,98042.85
2018-12-07T20:51:56.870Z,98042.75
2018-12-07T20:54:25.202Z,98039.45
2018-12-07T20:56:53.530Z,98044.61
2018-12-07T20:59:21.769Z,98075.54
2018-12-07T21:01:51.785Z,98054.16
2018-12-07T21:04:35.390Z,98083.06
2018-12-07T21:07:23.834Z,98066.03
2018-12-07T21:11:10.861Z,98069.36
2018-12-07T21:14:15.590Z,98091.20
2018-12-07T21:17:49.826Z,98098.80
2018-12-07T21:20:23.566Z,98114.64
2018-12-07T21:22:51.957Z,98136.95
2018-12-07T21:25:20.148Z,98121.95
2018-12-07T21:27:48.320Z,98117.73
2018-12-07T21:33:43.641Z,98135.59
2018-12-07T21:36:48.675Z,98134.78
2018-12-07T21:39:29.732Z,98161.85
2018-12-07T21:41:58.266Z,98192.78
2018-12-07T21:44:26.591Z,98197.52
2018-12-07T21:46:55.101Z,98215.34
2018-12-07T21:49:24.941Z,98229.88
2018-12-07T21:52:34.608Z,98226.14
2018-12-07T21:55:03.032Z,98229.02
2018-12-07T21:57:31.535Z,98230.77
2018-12-07T21:59:59.834Z,98237.50
2018-12-07T22:02:28.144Z,98231.02
2018-12-07T22:04:56.680Z,98252.79
2018-12-07T22:07:24.894Z,98243.41
2018-12-07T22:09:53.131Z,98275.25
2018-12-07T22:12:21.252Z,98293.31
2018-12-07T22:14:49.355Z,98307.00
2018-12-07T22:17:17.797Z,98308.39
2018-12-07T22:19:46.465Z,98322.11
2018-12-07T22:22:14.586Z,98340.91
2018-12-07T22:24:42.742Z,98359.62
2018-12-07T22:27:10.985Z,98362.41
2018-12-07T22:29:39.558Z,98383.09
2018-12-07T22:32:07.914Z,98408.48
2018-12-07T22:34:36.557Z,98420.52
2018-12-07T22:37:04.904Z,98430.02
2018-12-07T22:39:33.257Z,98448.88
2018-12-07T22:42:01.783Z,98444.91
2018-12-07T22:44:29.949Z,98472.17
2018-12-07T22:46:58.153Z,98485.19
2018-12-07T22:49:26.430Z,98483.60
2018-12-07T22:51:54.561Z,98489.37
2018-12-07T22:54:27.781Z,98487.27
2018-12-07T22:56:55.901Z,98488.88
2018-12-07T22:59:24.042Z,98497.58
2018-12-07T23:01:52.247Z,98501.48
2018-12-07T23:04:20.444Z,98505.04
2018-12-07T23:06:48.684Z,98502.55
2018-12-07T23:09:16.762Z,98506.40
2018-12-07T23:11:45.909Z,98514.20
2018-12-07T23:14:14.997Z,98514.45
2018-12-07T23:16:43.636Z,98514.84
2018-12-07T23:19:11.744Z,98524.77
2018-12-07T23:21:39.851Z,98531.81
2018-12-07T23:24:08.124Z,98539.95
2018-12-07T23:26:36.292Z,98543.86
2018-12-07T23:29:17.565Z,98550.88
2018-12-07T23:31:45.641Z,98554.30
2018-12-07T23:34:13.837Z,98552.09
2018-12-07T23:36:41.968Z,98551.09
2018-12-07T23:39:10.141Z,98562.70
2018-12-07T23:41:38.340Z,98563.21
2018-12-07T23:44:06.572Z,98566.52
2018-12-07T23:46:36.256Z,98572.91
2018-12-07T23:49:04.371Z,98576.41
2018-12-07T23:51:35.566Z,98576.08
2018-12-07T23:54:03.583Z,98567.87
2018-12-07T23:56:31.699Z,98573.28
2018-12-07T23:59:00.572Z,98574.78
